createdAt,value
2022-11-27T00:00:26.297Z,39.40
2022-11-27T00:03:29.242Z,37.97
2022-11-27T00:06:32.082Z,38.03
2022-11-27T00:09:34.991Z,40.75
2022-11-27T00:12:37.695Z,39.00
2022-11-27T00:15:40.754Z,35.90
2022-11-27T00:18:43.961Z,38.40
2022-11-27T00:21:46.747Z,38.15
2022-11-27T00:24:49.242Z,40.00
2022-11-27T00:27:52.028Z,37.93
2022-11-27T00:31:01.971Z,41.33
2022-11-27T00:34:06.455Z,40.12
2022-11-27T00:37:08.928Z,35.72
2022-11-27T00:40:13.530Z,39.22
2022-11-27T00:43:16.037Z,43.07
2022-11-27T00:46:27.905Z,39.40
2022-11-27T00:49:30.913Z,42.15
2022-11-27T00:52:33.735Z,43.65
2022-11-27T00:55:36.225Z,40.45
2022-11-27T00:58:39.430Z,44.20
2022-11-27T01:01:43.352Z,44.25
2022-11-27T01:04:47.168Z,39.25
2022-11-27T01:07:49.880Z,39.33
2022-11-27T01:10:55.197Z,38.35
2022-11-27T01:14:02.309Z,39.20
2022-11-27T01:17:05.107Z,40.17
2022-11-27T01:20:08.199Z,38.42
2022-11-27T01:23:10.992Z,44.15
2022-11-27T01:26:13.829Z,36.28
2022-11-27T01:29:17.088Z,38.83
2022-11-27T01:32:19.546Z,39.85
2022-11-27T01:35:22.310Z,38.80
2022-11-27T01:38:25.706Z,39.88
2022-11-27T01:41:34.063Z,40.40
2022-11-27T01:44:36.494Z,43.10
2022-11-27T01:47:44.605Z,49.05
2022-11-27T01:50:47.152Z,43.60
2022-11-27T01:53:50.491Z,42.00
2022-11-27T01:56:58.415Z,45.70
2022-11-27T02:00:02.125Z,43.17
2022-11-27T02:03:16.210Z,46.85
2022-11-27T02:06:19.109Z,44.70
2022-11-27T02:09:21.876Z,38.13
2022-11-27T02:12:31.124Z,47.20
2022-11-27T02:16:02.653Z,44.57
2022-11-27T02:19:41.772Z,47.22
2022-11-27T02:23:05.911Z,47.17
2022-11-27T02:26:36.381Z,49.25
2022-11-27T02:29:39.900Z,51.40
2022-11-27T02:32:50.003Z,42.63
2022-11-27T02:36:09.096Z,47.13
2022-11-27T02:39:18.615Z,50.70
2022-11-27T02:42:21.444Z,48.67
2022-11-27T02:45:29.788Z,44.08
2022-11-27T02:48:42.813Z,51.00
2022-11-27T02:51:49.839Z,47.00
2022-11-27T02:54:59.613Z,50.60
2022-11-27T02:58:05.740Z,47.17
2022-11-27T03:01:08.467Z,50.05
2022-11-27T03:04:14.412Z,45.23
2022-11-27T03:07:23.315Z,47.90
2022-11-27T03:10:40.605Z,50.65
2022-11-27T03:13:46.953Z,49.17
2022-11-27T03:17:00.983Z,54.17
2022-11-27T03:20:28.507Z,47.00
2022-11-27T03:23:31.373Z,51.70
2022-11-27T03:26:33.952Z,50.97
2022-11-27T03:29:44.889Z,47.67
2022-11-27T03:32:47.535Z,51.95
2022-11-27T03:35:50.338Z,46.97
2022-11-27T03:38:54.153Z,50.97
2022-11-27T03:42:03.332Z,45.97
2022-11-27T03:45:21.101Z,45.47
2022-11-27T03:48:57.545Z,53.60
2022-11-27T03:52:13.733Z,48.40
2022-11-27T03:55:51.700Z,56.33
2022-11-27T03:59:28.822Z,53.40
2022-11-27T04:02:50.938Z,43.40
2022-11-27T04:05:53.815Z,47.75
2022-11-27T04:08:56.426Z,49.97
2022-11-27T04:11:59.304Z,51.17
2022-11-27T04:15:01.928Z,52.13
2022-11-27T04:18:05.131Z,49.88
2022-11-27T04:21:07.735Z,49.20
2022-11-27T04:24:10.516Z,72.27
2022-11-27T04:27:13.010Z,64.53
2022-11-27T04:30:17.942Z,57.33
2022-11-27T04:33:21.027Z,76.47
2022-11-27T04:36:23.793Z,53.65
2022-11-27T04:39:26.358Z,53.70
2022-11-27T04:42:29.239Z,52.95
2022-11-27T04:45:31.846Z,49.08
2022-11-27T04:48:34.722Z,50.30
2022-11-27T04:51:37.195Z,63.87
2022-11-27T04:54:40.212Z,54.50
2022-11-27T04:57:42.845Z,54.72
2022-11-27T05:00:47.031Z,70.07
2022-11-27T05:03:49.720Z,56.63
2022-11-27T05:06:52.484Z,82.95
2022-11-27T05:09:54.938Z,137.80
2022-11-27T05:12:57.734Z,66.75
2022-11-27T05:16:00.748Z,57.60
2022-11-27T05:19:04.062Z,70.75
2022-11-27T05:22:06.611Z,52.88
2022-11-27T05:25:09.760Z,69.10
2022-11-27T05:28:12.279Z,50.90
2022-11-27T05:31:15.209Z,72.12
2022-11-27T05:34:17.907Z,51.90
2022-11-27T05:37:20.655Z,66.07
2022-11-27T05:40:25.269Z,62.67
2022-11-27T05:43:28.044Z,62.92
2022-11-27T05:46:30.993Z,52.15
2022-11-27T05:49:33.924Z,57.70
2022-11-27T05:52:36.535Z,69.05
2022-11-27T05:55:39.320Z,77.47
2022-11-27T05:58:43.388Z,79.80
2022-11-27T06:01:46.299Z,86.78
2022-11-27T06:04:49.210Z,102.28
2022-11-27T06:07:51.763Z,52.90
2022-11-27T06:10:54.692Z,52.07
2022-11-27T06:13:57.290Z,76.10
2022-11-27T06:17:00.145Z,86.30
2022-11-27T06:20:03.059Z,90.05
2022-11-27T06:23:06.061Z,100.55
2022-11-27T06:26:16.960Z,77.83
2022-11-27T06:29:19.761Z,116.78
2022-11-27T06:32:22.185Z,110.43
2022-11-27T06:35:25.121Z,114.65
2022-11-27T06:38:27.623Z,72.50
2022-11-27T06:41:30.473Z,66.63
2022-11-27T06:44:33.044Z,83.68
2022-11-27T06:47:35.917Z,67.12
2022-11-27T06:50:38.528Z,53.53
2022-11-27T06:53:42.064Z,99.90
2022-11-27T06:56:44.662Z,76.00
2022-11-27T06:59:47.575Z,129.90
2022-11-27T07:02:54.013Z,89.95
2022-11-27T07:06:00.200Z,53.97
2022-11-27T07:09:02.883Z,77.70
2022-11-27T07:12:06.227Z,161.23
2022-11-27T07:15:09.188Z,81.12
2022-11-27T07:18:12.014Z,166.95
2022-11-27T07:21:15.661Z,96.53
2022-11-27T07:24:18.776Z,113.82
2022-11-27T07:27:21.312Z,67.90
2022-11-27T07:30:24.120Z,150.50
2022-11-27T07:33:27.069Z,76.62
2022-11-27T07:36:30.990Z,67.22
2022-11-27T07:39:54.427Z,51.30
2022-11-27T07:43:00.475Z,118.93
2022-11-27T07:46:04.515Z,70.95
2022-11-27T07:49:07.393Z,58.17
2022-11-27T07:52:09.861Z,45.85
2022-11-27T07:55:12.668Z,48.15
2022-11-27T07:58:15.168Z,41.43
2022-11-27T08:01:19.434Z,52.95
2022-11-27T08:04:22.500Z,40.42
2022-11-27T08:07:29.275Z,51.17
2022-11-27T08:10:35.283Z,40.65
2022-11-27T08:13:37.769Z,49.20
2022-11-27T08:16:41.367Z,41.63
2022-11-27T08:19:44.223Z,55.12
2022-11-27T08:22:47.210Z,81.25
2022-11-27T08:25:49.708Z,62.75
2022-11-27T08:28:53.012Z,58.57
2022-11-27T08:31:55.648Z,49.22
2022-11-27T08:34:58.442Z,80.22
2022-11-27T08:38:00.986Z,73.10
2022-11-27T08:41:05.454Z,68.57
2022-11-27T08:44:09.551Z,52.50
2022-11-27T08:47:13.938Z,58.30
2022-11-27T08:50:16.741Z,102.15
2022-11-27T08:53:19.660Z,83.90
2022-11-27T08:56:24.814Z,59.65
2022-11-27T08:59:27.532Z,64.70
2022-11-27T09:02:30.005Z,51.37
2022-11-27T09:05:33.204Z,45.65
2022-11-27T09:08:35.725Z,60.67
2022-11-27T09:11:38.665Z,51.67
2022-11-27T09:14:41.600Z,96.47
2022-11-27T09:17:44.998Z,54.88
2022-11-27T09:20:58.367Z,52.55
2022-11-27T09:24:01.850Z,68.15
2022-11-27T09:27:04.371Z,66.70
2022-11-27T09:30:08.705Z,143.50
2022-11-27T09:33:11.321Z,62.55
2022-11-27T09:36:19.892Z,50.53
2022-11-27T09:39:22.853Z,46.80
2022-11-27T09:42:50.557Z,55.90
2022-11-27T09:45:55.988Z,57.07
2022-11-27T09:49:01.149Z,125.80
2022-11-27T09:52:16.914Z,50.50
2022-11-27T09:55:34.998Z,55.70
2022-11-27T09:58:42.425Z,39.58
2022-11-27T10:01:50.596Z,71.43
2022-11-27T10:08:38.695Z,53.30
2022-11-27T10:12:11.080Z,105.15
2022-11-27T10:15:27.805Z,93.22
2022-11-27T10:18:44.158Z,50.90
2022-11-27T10:21:57.235Z,51.67
2022-11-27T10:25:20.522Z,35.58
2022-11-27T10:28:37.712Z,40.88
2022-11-27T10:31:46.849Z,40.42
2022-11-27T10:34:59.929Z,47.30
2022-11-27T10:38:13.384Z,39.90
2022-11-27T10:41:48.291Z,38.45
2022-11-27T10:44:52.231Z,46.63
2022-11-27T10:47:54.880Z,49.58
2022-11-27T10:50:57.669Z,35.23
2022-11-27T10:54:01.273Z,36.22
2022-11-27T10:57:16.428Z,45.92
2022-11-27T11:00:24.132Z,43.38
2022-11-27T11:03:26.945Z,41.15
2022-11-27T11:06:30.395Z,34.97
2022-11-27T11:09:35.137Z,42.92
2022-11-27T11:12:37.681Z,41.75
2022-11-27T11:16:05.223Z,39.90
2022-11-27T11:19:31.434Z,32.17
2022-11-27T11:22:34.826Z,32.73
2022-11-27T11:25:37.399Z,41.42
2022-11-27T11:28:48.321Z,35.92
2022-11-27T11:31:50.918Z,36.70
2022-11-27T11:35:08.557Z,31.12
2022-11-27T11:38:17.853Z,34.67
2022-11-27T11:41:20.989Z,28.85
2022-11-27T11:44:31.607Z,39.75
2022-11-27T11:47:34.442Z,28.67
2022-11-27T11:50:42.950Z,33.58
2022-11-27T11:53:53.503Z,35.47
2022-11-27T11:56:59.411Z,28.12
2022-11-27T12:00:15.210Z,38.28
2022-11-27T12:03:23.568Z,34.05
2022-11-27T12:06:31.950Z,31.48
2022-11-27T12:10:13.346Z,25.20
2022-11-27T12:13:33.370Z,32.97
2022-11-27T12:16:56.195Z,27.67
2022-11-27T12:20:17.780Z,29.87
2022-11-27T12:23:31.806Z,23.90
2022-11-27T12:27:21.996Z,27.93
2022-11-27T12:30:34.945Z,29.35
2022-11-27T12:33:43.313Z,24.52
2022-11-27T12:36:52.148Z,28.17
2022-11-27T12:40:05.215Z,25.42
2022-11-27T12:43:11.170Z,25.50
2022-11-27T12:46:20.130Z,26.25
2022-11-27T12:49:28.074Z,24.95
2022-11-27T12:52:38.933Z,27.02
2022-11-27T12:55:46.800Z,28.73
2022-11-27T12:58:57.638Z,27.97
2022-11-27T13:02:09.586Z,34.83
2022-11-27T13:05:24.893Z,28.48
2022-11-27T13:08:57.096Z,25.67
2022-11-27T13:12:00.513Z,27.65
2022-11-27T13:15:40.781Z,31.97
2022-11-27T13:18:53.706Z,27.62
2022-11-27T13:21:57.935Z,24.77
2022-11-27T13:25:01.910Z,26.15
2022-11-27T13:28:05.801Z,23.02
2022-11-27T13:31:14.639Z,21.93
2022-11-27T13:34:24.802Z,24.63
2022-11-27T13:37:27.456Z,22.10
2022-11-27T13:40:33.199Z,20.92
2022-11-27T13:43:43.939Z,28.85
2022-11-27T13:46:49.142Z,23.83
2022-11-27T13:50:03.158Z,24.05
2022-11-27T13:53:07.443Z,29.48
2022-11-27T13:56:10.233Z,24.25
2022-11-27T13:59:15.065Z,27.33
2022-11-27T14:02:17.899Z,28.37
2022-11-27T14:05:33.720Z,26.20
2022-11-27T14:08:36.600Z,28.92
2022-11-27T14:11:43.481Z,26.83
2022-11-27T14:15:17.391Z,30.80
2022-11-27T14:18:21.959Z,27.23
2022-11-27T14:21:41.880Z,26.87
2022-11-27T14:24:46.088Z,25.05
2022-11-27T14:27:56.994Z,22.23
2022-11-27T14:31:01.323Z,27.23
2022-11-27T14:34:24.282Z,22.07
2022-11-27T14:37:28.401Z,25.08
2022-11-27T14:40:37.443Z,21.25
2022-11-27T14:43:40.257Z,22.20
2022-11-27T14:46:43.124Z,22.52
2022-11-27T14:49:47.275Z,25.70
2022-11-27T14:52:55.269Z,22.67
2022-11-27T14:55:58.792Z,24.52
2022-11-27T14:59:02.122Z,24.48
2022-11-27T15:02:18.484Z,24.02
2022-11-27T15:05:24.267Z,26.70
2022-11-27T15:08:28.941Z,21.55
2022-11-27T15:11:54.619Z,23.75
2022-11-27T15:15:06.949Z,24.40
2022-11-27T15:18:17.720Z,20.80
2022-11-27T15:21:22.062Z,23.40
2022-11-27T15:24:37.102Z,21.12
2022-11-27T15:27:47.549Z,22.87
2022-11-27T15:30:50.955Z,20.42
2022-11-27T15:34:26.432Z,19.33
2022-11-27T15:37:34.243Z,21.73
2022-11-27T15:40:39.991Z,18.98
2022-11-27T15:43:42.737Z,22.10
2022-11-27T15:46:46.065Z,22.35
2022-11-27T15:49:48.969Z,25.27
2022-11-27T15:52:52.527Z,16.90
2022-11-27T15:55:55.122Z,21.92
2022-11-27T15:58:57.957Z,19.70
2022-11-27T16:02:00.611Z,21.15
2022-11-27T16:05:04.980Z,19.55
2022-11-27T16:08:10.773Z,18.73
2022-11-27T16:11:14.756Z,17.95
2022-11-27T16:14:17.465Z,23.10
2022-11-27T16:17:20.735Z,19.42
2022-11-27T16:20:32.798Z,23.42
2022-11-27T16:23:36.610Z,21.00
2022-11-27T16:26:39.591Z,17.92
2022-11-27T16:29:45.061Z,47.05
2022-11-27T16:32:48.887Z,20.40
2022-11-27T16:35:52.151Z,58.30
2022-11-27T16:38:55.872Z,27.03
2022-11-27T16:41:59.317Z,23.33
2022-11-27T16:45:02.251Z,40.72
2022-11-27T16:48:05.958Z,32.17
2022-11-27T16:51:19.651Z,27.35
2022-11-27T16:54:22.894Z,39.50
2022-11-27T16:57:26.041Z,20.42
2022-11-27T17:00:31.311Z,22.73
2022-11-27T17:03:35.084Z,23.23
2022-11-27T17:06:38.988Z,29.55
2022-11-27T17:09:42.282Z,27.43
2022-11-27T17:12:45.475Z,24.83
2022-11-27T17:15:48.306Z,27.50
2022-11-27T17:18:51.406Z,27.37
2022-11-27T17:21:54.466Z,37.28
2022-11-27T17:24:58.398Z,31.23
2022-11-27T17:28:01.127Z,33.63
2022-11-27T17:31:10.289Z,32.15
2022-11-27T17:34:14.733Z,36.50
2022-11-27T17:37:17.673Z,39.13
2022-11-27T17:40:20.656Z,35.73
2022-11-27T17:43:25.600Z,34.83
2022-11-27T17:46:29.175Z,39.35
2022-11-27T17:49:32.808Z,30.92
2022-11-27T17:52:38.151Z,32.75
2022-11-27T17:55:41.365Z,34.03
2022-11-27T17:58:44.756Z,33.35
2022-11-27T18:01:51.257Z,36.95
2022-11-27T18:04:54.591Z,34.90
2022-11-27T18:07:59.193Z,34.33
2022-11-27T18:11:10.628Z,39.00
2022-11-27T18:14:16.127Z,41.75
2022-11-27T18:17:20.840Z,37.03
2022-11-27T18:20:24.050Z,37.22
2022-11-27T18:23:27.035Z,39.20
2022-11-27T18:26:52.472Z,41.47
2022-11-27T18:29:53.217Z,37.95
2022-11-27T18:32:56.021Z,41.37
2022-11-27T18:35:59.193Z,41.47
2022-11-27T18:39:03.621Z,43.10
2022-11-27T18:42:07.008Z,48.70
2022-11-27T18:45:31.938Z,46.47
2022-11-27T18:48:34.703Z,46.13
2022-11-27T18:51:37.454Z,45.50
2022-11-27T18:54:40.873Z,46.90
2022-11-27T18:57:43.799Z,48.37
2022-11-27T19:00:46.819Z,45.63
2022-11-27T19:03:50.663Z,51.90
2022-11-27T19:06:54.492Z,53.53
2022-11-27T19:09:57.167Z,49.50
2022-11-27T19:13:00.302Z,43.50
2022-11-27T19:16:08.226Z,48.42
2022-11-27T19:22:42.139Z,45.00
2022-11-27T19:25:46.279Z,50.22
2022-11-27T19:28:57.108Z,45.73
2022-11-27T19:32:01.309Z,52.17
2022-11-27T19:35:07.081Z,49.80
2022-11-27T19:38:10.367Z,48.00
2022-11-27T19:41:17.813Z,52.62
2022-11-27T19:44:21.067Z,50.80
2022-11-27T19:47:24.199Z,44.33
2022-11-27T19:50:28.399Z,49.97
2022-11-27T19:53:31.238Z,48.35
2022-11-27T19:56:37.413Z,52.10
2022-11-27T19:59:40.562Z,43.83
2022-11-27T20:02:45.012Z,51.97
2022-11-27T20:05:48.236Z,58.28
2022-11-27T20:08:53.090Z,44.00
2022-11-27T20:11:56.770Z,46.47
2022-11-27T20:15:00.002Z,50.47
2022-11-27T20:18:04.851Z,62.17
2022-11-27T20:21:11.651Z,59.92
2022-11-27T20:24:14.993Z,64.30
2022-11-27T20:27:18.292Z,97.53
2022-11-27T20:30:21.852Z,50.60
2022-11-27T20:33:25.718Z,47.05
2022-11-27T20:36:30.349Z,51.25
2022-11-27T20:39:35.076Z,49.30
2022-11-27T20:42:38.410Z,60.08
2022-11-27T20:45:42.129Z,49.83
2022-11-27T20:48:48.179Z,58.70
2022-11-27T20:51:51.655Z,53.30
2022-11-27T20:54:55.656Z,58.65
2022-11-27T20:57:58.982Z,56.28
2022-11-27T21:01:02.678Z,63.03
2022-11-27T21:04:09.574Z,59.15
2022-11-27T21:07:14.323Z,57.47
2022-11-27T21:10:20.253Z,51.53
2022-11-27T21:13:23.932Z,59.25
2022-11-27T21:16:29.005Z,61.53
2022-11-27T21:19:32.072Z,62.17
2022-11-27T21:22:35.118Z,63.05
2022-11-27T21:25:38.835Z,58.45
2022-11-27T21:28:42.803Z,62.83
2022-11-27T21:31:47.424Z,79.50
2022-11-27T21:34:50.571Z,72.37
2022-11-27T21:37:53.573Z,67.12
2022-11-27T21:40:56.561Z,67.22
2022-11-27T21:44:01.724Z,61.53
2022-11-27T21:47:06.012Z,66.43
2022-11-27T21:50:09.308Z,56.67
2022-11-27T21:53:12.059Z,65.32
2022-11-27T21:56:16.584Z,58.33
2022-11-27T21:59:19.368Z,68.95
2022-11-27T22:02:23.064Z,60.10
2022-11-27T22:05:26.226Z,68.97
2022-11-27T22:08:29.948Z,62.33
2022-11-27T22:11:33.516Z,60.95
2022-11-27T22:14:36.340Z,57.05
2022-11-27T22:17:40.517Z,60.90
2022-11-27T22:20:43.560Z,60.25
2022-11-27T22:23:46.862Z,57.90
2022-11-27T22:26:49.916Z,60.72
2022-11-27T22:29:53.511Z,70.53
2022-11-27T22:32:56.736Z,63.93
2022-11-27T22:36:10.828Z,65.05
2022-11-27T22:39:13.396Z,60.67
2022-11-27T22:42:16.283Z,62.53
2022-11-27T22:45:19.237Z,60.40
2022-11-27T22:48:22.121Z,54.67
2022-11-27T22:51:26.061Z,60.15
2022-11-27T22:54:29.153Z,58.63
2022-11-27T22:57:33.952Z,70.95
2022-11-27T23:00:37.315Z,66.95
2022-11-27T23:03:40.366Z,57.53
2022-11-27T23:06:47.862Z,65.43
2022-11-27T23:09:50.373Z,55.15
2022-11-27T23:12:53.211Z,60.28
2022-11-27T23:15:55.671Z,61.53
2022-11-27T23:18:58.917Z,72.63
2022-11-27T23:22:02.014Z,83.45
2022-11-27T23:25:05.166Z,58.10
2022-11-27T23:28:08.027Z,93.30
2022-11-27T23:31:29.539Z,89.20
2022-11-27T23:34:32.749Z,52.73
2022-11-27T23:37:36.974Z,56.33
2022-11-27T23:40:39.479Z,53.87
2022-11-27T23:43:42.255Z,50.17
2022-11-27T23:46:44.817Z,58.70
2022-11-27T23:49:47.605Z,57.57
2022-11-27T23:52:50.289Z,58.38
2022-11-27T23:55:53.040Z,53.97
2022-11-27T23:58:56.235Z,54.95
